Data for 10/28/2015

Time Sea-Level Adjusted Pressure Absolute Pressure Temperature Relative Humidity Dew Point   
(mb) (inHg) (mb) (inHg) (C) (F) (%) (C) (F)
00:05 1020 30.12 849 25.07 0.9 33.6 79 -2.4 27.7
00:10 1020 30.12 849 25.07 0.7 33.3 80 -2.4 27.6
00:15 1020 30.12 849 25.07 0.6 33.1 80 -2.3 27.8
00:20 1020 30.12 849 25.07 0.4 32.8 81 -2.4 27.6
00:25 1020 30.12 849 25.07 0.2 32.3 82 -2.5 27.5
00:30 1020 30.12 849 25.07 -0 32 84 -2.5 27.5
00:35 1020 30.12 849 25.07 0.1 32.2 83 -2.4 27.7
00:40 1020 30.12 849 25.07 0.3 32.5 82 -2.4 27.7
00:45 1020 30.12 849 25.07 0.4 32.7 82 -2.4 27.7
00:50 1020 30.12 849 25.07 0.2 32.3 82 -2.6 27.4
00:55 1020 30.12 849 25.07 -0.3 31.5 85 -2.6 27.3
01:00 1020 30.12 849 25.07 -0.5 31.1 86 -2.6 27.3
01:05 1020 30.12 849 25.07 -0.4 31.3 85 -2.7 27.2
01:10 1020 30.12 849 25.07 -0.6 31 86 -2.6 27.3
01:15 1020 30.12 849 25.07 -0.5 31.2 84 -2.8 27
01:20 1020 30.12 849 25.07 -0.2 31.7 84 -2.6 27.3
01:25 1020 30.12 849 25.07 -0 31.9 83 -2.7 27.2
01:30 1020 30.12 849 25.07 0.1 32.2 82 -2.7 27.2
01:35 1020 30.12 849 25.07 0.2 32.3 82 -2.6 27.3
01:40 1020 30.12 849 25.07 -0.2 31.7 83 -2.7 27.1
01:45 1020 30.12 849 25.07 -0.2 31.7 82 -2.8 26.9
01:50 1020 30.12 849 25.07 -0.2 31.7 82 -2.8 27
01:55 1020 30.12 849 25.07 -0.5 31.1 84 -2.9 26.8
02:00 1020 30.12 849 25.07 -0.7 30.7 85 -2.9 26.7
02:05 1020 30.12 849 25.07 -0.2 31.6 81 -3.1 26.5
02:10 1020 30.12 849 25.07 0 32.1 81 -2.8 26.9
02:15 1020 30.12 849 25.07 -0 32 81 -2.9 26.8
02:20 1020 30.12 849 25.07 0.1 32.1 81 -2.9 26.8
02:25 1020 30.12 849 25.07 0.3 32.5 80 -2.8 27
02:30 1020 30.12 849 25.07 0.2 32.4 81 -2.7 27.2
02:35 1020 30.12 849 25.07 0.2 32.3 81 -2.6 27.3
02:40 1020 30.12 849 25.07 0.1 32.2 81 -2.7 27.1
02:45 1020 30.12 849 25.07 -0 31.9 82 -2.7 27.1
02:50 1020 30.12 849 25.07 0.1 32.2 81 -2.8 27
02:55 1020 30.12 849 25.07 0.2 32.4 81 -2.7 27.1
03:00 1020 30.12 849 25.07 0.3 32.5 80 -2.7 27.1
03:05 1020 30.12 849 25.07 0.4 32.8 79 -2.8 27
03:10 1019 30.09 849 25.07 0.2 32.4 80 -2.8 26.9
03:15 1019 30.09 849 25.07 0.1 32.1 81 -2.8 27
03:20 1019 30.09 849 25.07 0.1 32.2 80 -2.9 26.8
03:25 1019 30.09 849 25.07 0.2 32.4 80 -2.8 26.9
03:30 1019 30.09 849 25.07 -0.1 31.9 81 -2.9 26.8
03:35 1019 30.09 849 25.07 -0.2 31.7 82 -2.9 26.8
03:40 1019 30.09 849 25.07 -0.1 31.9 81 -2.9 26.7
03:45 1019 30.09 849 25.07 -0.1 31.9 82 -2.9 26.9
03:50 1019 30.09 849 25.07 -0.1 31.8 81 -3 26.7
03:55 1019 30.09 849 25.07 0.2 32.4 79 -3 26.6
04:00 1019 30.09 849 25.07 0.4 32.7 79 -2.8 27
04:05 1019 30.09 849 25.07 0.5 32.9 78 -2.8 26.9
04:10 1019 30.09 848 25.04 0.4 32.7 78 -3 26.6
04:15 1019 30.09 848 25.04 0.2 32.3 79 -3 26.6
04:20 1019 30.09 849 25.07 0.2 32.4 78 -3.1 26.4
04:25 1019 30.09 849 25.07 0.5 32.9 79 -2.8 26.9
04:30 1019 30.09 849 25.07 0.3 32.5 79 -3 26.6
04:35 1019 30.09 849 25.07 0.2 32.3 79 -3 26.6
04:40 1019 30.09 849 25.07 -0 31.9 79 -3.2 26.2
04:45 1019 30.09 849 25.07 -0.3 31.4 81 -3.1 26.4
04:50 1019 30.09 849 25.07 -0.6 30.9 82 -3.3 26.1
04:55 1019 30.09 849 25.07 -0.8 30.6 83 -3.3 26.1
05:00 1019 30.09 848 25.04 -0.9 30.4 84 -3.2 26.2
05:05 1019 30.09 848 25.04 -0.9 30.4 84 -3.3 26.1
05:10 1019 30.09 848 25.04 -0.9 30.3 84 -3.4 25.9
05:15 1019 30.09 848 25.04 -0.7 30.8 82 -3.3 26
05:20 1019 30.09 848 25.04 -0.6 30.9 83 -3.1 26.3
05:25 1019 30.09 848 25.04 -0.8 30.6 84 -3.2 26.2
05:30 1019 30.09 848 25.04 -0.6 30.9 82 -3.3 26.1
05:35 1019 30.09 848 25.04 -0.5 31.1 82 -3.3 26.1
05:40 1019 30.09 848 25.04 -0.5 31.2 82 -3.2 26.3
05:45 1019 30.09 848 25.04 -0.6 30.8 82 -3.4 25.9
05:50 1019 30.09 848 25.04 -0.7 30.8 82 -3.4 25.9
05:55 1019 30.09 848 25.04 -0.8 30.5 83 -3.3 26
06:00 1019 30.09 848 25.04 -0.8 30.5 83 -3.3 26
06:05 1019 30.09 848 25.04 -0.7 30.7 82 -3.3 26
06:10 1019 30.09 848 25.04 -0.6 30.8 82 -3.4 26
06:15 1019 30.09 848 25.04 -0.6 30.9 82 -3.4 25.9
06:20 1019 30.09 848 25.04 -0.8 30.6 82 -3.4 25.8
06:25 1019 30.09 848 25.04 -1 30.3 83 -3.5 25.7
06:30 1019 30.09 848 25.04 -1.1 30.1 83 -3.6 25.6
06:35 1019 30.09 848 25.04 -1.1 30 83 -3.6 25.4
06:40 1019 30.09 848 25.04 -0.9 30.5 82 -3.6 25.5
06:45 1019 30.09 848 25.04 -0.5 31 80 -3.6 25.6
06:50 1019 30.09 848 25.04 -0.8 30.6 82 -3.6 25.6
06:55 1019 30.09 848 25.04 -1.2 29.9 83 -3.7 25.3
07:00 1019 30.09 848 25.04 -1.1 30 83 -3.7 25.4
07:05 1019 30.09 848 25.04 -1 30.2 82 -3.7 25.3
07:10 1019 30.09 848 25.04 -0.8 30.6 81 -3.7 25.4
07:15 1019 30.09 848 25.04 -0.5 31.1 80 -3.6 25.5
07:20 1019 30.09 848 25.04 -0.3 31.5 79 -3.5 25.6
07:25 1019 30.09 848 25.04 -0 31.9 77 -3.7 25.4
07:30 1019 30.09 848 25.04 0.2 32.4 76 -3.5 25.6
07:35 1019 30.09 848 25.04 0.3 32.6 75 -3.5 25.7
07:40 1019 30.09 848 25.04 0 32 77 -3.5 25.7
07:45 1019 30.09 848 25.04 -0.2 31.6 78 -3.6 25.5
07:50 1019 30.09 848 25.04 -0.1 31.8 78 -3.5 25.6
07:55 1019 30.09 848 25.04 0.1 32.1 77 -3.4 25.9
08:00 1019 30.09 848 25.04 0.3 32.5 77 -3.3 26.1
08:05 1019 30.09 848 25.04 0.5 32.9 77 -3.2 26.3
08:10 1019 30.09 848 25.04 0.8 33.4 76 -3 26.7
08:15 1019 30.09 848 25.04 1.2 34.2 74 -3 26.6
08:20 1019 30.09 848 25.04 1.3 34.3 74 -2.9 26.8
08:25 1019 30.09 848 25.04 1.8 35.2 71 -2.9 26.8
08:30 1019 30.09 848 25.04 2.2 36 71 -2.6 27.4
08:35 1019 30.09 848 25.04 2.4 36.4 69 -2.7 27.2
08:40 1019 30.09 848 25.04 2.3 36.1 70 -2.6 27.3
08:45 1019 30.09 848 25.04 2.7 36.8 69 -2.5 27.5
08:50 1019 30.09 848 25.04 2.8 37.1 68 -2.5 27.5
08:55 1019 30.09 848 25.04 3.4 38.1 66 -2.4 27.7
09:00 1019 30.09 848 25.04 3.7 38.6 67 -1.9 28.5
09:05 1019 30.09 848 25.04 3.9 39 65 -2.2 28.1
09:10 1019 30.09 848 25.04 4.4 39.9 62 -2.1 28.2
09:15 1019 30.09 848 25.04 4.9 40.8 62 -1.7 29
09:20 1019 30.09 848 25.04 5.1 41.2 61 -1.7 29
09:25 1019 30.09 848 25.04 5.6 42 60 -1.6 29.1
09:30 1019 30.09 848 25.04 5.5 41.9 61 -1.5 29.4
09:35 1019 30.09 848 25.04 5.5 42 59 -1.8 28.8
09:40 1019 30.09 848 25.04 5.7 42.3 56 -2.3 27.9
09:45 1019 30.09 848 25.04 6.3 43.3 57 -1.7 29
09:50 1019 30.09 848 25.04 6.4 43.6 56 -1.6 29.2
09:55 1019 30.09 848 25.04 6.8 44.2 56 -1.4 29.5
10:00 1019 30.09 848 25.04 7 44.7 53 -1.8 28.8
10:05 1019 30.09 848 25.04 6.7 44.1 54 -1.8 28.7
10:10 1019 30.09 848 25.04 6.9 44.5 54 -1.8 28.7
10:15 1019 30.09 848 25.04 7.2 44.9 53 -1.8 28.7
10:20 1019 30.09 848 25.04 7.3 45.2 53 -1.6 29.2
10:25 1019 30.09 848 25.04 7.3 45.2 52 -1.9 28.6
10:30 1018 30.06 848 25.04 7.5 45.5 52 -1.6 29
10:35 1018 30.06 848 25.04 7.9 46.3 51 -1.5 29.3
10:40 1018 30.06 848 25.04 8 46.4 51 -1.5 29.3
10:45 1018 30.06 848 25.04 7.7 45.8 52 -1.5 29.3
10:50 1018 30.06 848 25.04 8 46.4 49 -2 28.4
10:55 1018 30.06 847 25.01 8.1 46.7 51 -1.4 29.5
11:00 1018 30.06 847 25.01 7.6 45.7 53 -1.4 29.4
11:05 1018 30.06 847 25.01 7.2 45 53 -1.8 28.8
11:10 1018 30.06 847 25.01 8.2 46.7 48 -2.2 28.1
11:15 1018 30.06 847 25.01 8.5 47.4 48 -1.8 28.8
11:20 1018 30.06 847 25.01 8.4 47.1 50 -1.3 29.7
11:25 1018 30.06 847 25.01 8.1 46.6 49 -1.9 28.5
11:30 1018 30.06 847 25.01 8.6 47.5 48 -1.6 29
11:35 1018 30.06 847 25.01 8.5 47.3 50 -1.2 29.8
11:40 1018 30.06 847 25.01 8.3 47 50 -1.5 29.4
11:45 1018 30.06 847 25.01 8.2 46.7 50 -1.6 29.1
11:50 1018 30.06 847 25.01 8.4 47.1 49 -1.7 28.9
11:55 1018 30.06 847 25.01 8.2 46.7 50 -1.6 29.2
12:00 1018 30.06 847 25.01 9 48.2 46 -1.8 28.7
12:05 1018 30.06 847 25.01 9.5 49 46 -1.7 29
12:10 1017 30.03 847 25.01 9.6 49.2 44 -2 28.4
12:15 1017 30.03 847 25.01 9.8 49.7 45 -1.6 29.2
12:20 1017 30.03 847 25.01 8.9 48 51 -0.7 30.7
12:25 1017 30.03 847 25.01 8.1 46.6 49 -2.1 28.3
12:30 1017 30.03 847 25.01 8.6 47.5 49 -1.5 29.3
12:35 1017 30.03 846 24.98 9.2 48.6 46 -1.8 28.8
12:40 1017 30.03 846 24.98 9.2 48.5 48 -1.2 29.8
12:45 1017 30.03 846 24.98 9.3 48.8 48 -1 30.2
12:50 1017 30.03 846 24.98 9.4 48.8 49 -0.8 30.5
12:55 1017 30.03 846 24.98 9 48.1 50 -0.7 30.7
13:00 1017 30.03 846 24.98 9.3 48.8 47 -1.3 29.7
13:05 1017 30.03 846 24.98 9.6 49.2 47 -1.1 30
13:10 1017 30.03 846 24.98 9.8 49.6 47 -1.1 30
13:15 1017 30.03 846 24.98 10.4 50.7 43 -1.7 29
13:20 1017 30.03 846 24.98 10.7 51.3 42 -1.6 29.1
13:25 1017 30.03 846 24.98 11.2 52.2 42 -1 30.2
13:30 1017 30.03 846 24.98 10.9 51.6 43 -1.3 29.7
13:35 1017 30.03 846 24.98 11 51.7 43 -1 30.2
13:40 1017 30.03 846 24.98 10.8 51.4 43 -1.3 29.7
13:45 1016 30 846 24.98 10 50 46 -1.2 29.9
13:50 1016 30 846 24.98 10.4 50.8 42 -2 28.3
13:55 1016 30 846 24.98 10.9 51.6 41 -1.7 29
14:00 1016 30 846 24.98 10.9 51.7 43 -1.3 29.7
14:05 1016 30 845 24.95 10.7 51.3 42 -1.5 29.4
14:10 1016 30 845 24.95 10.3 50.5 43 -1.7 29
14:15 1016 30 845 24.95 10.5 51 42 -1.8 28.7
14:20 1016 30 845 24.95 10.2 50.4 42 -2.2 28.1
14:25 1016 30 845 24.95 10.2 50.4 42 -1.9 28.6
14:30 1016 30 845 24.95 10.4 50.8 43 -1.4 29.4
14:35 1016 30 845 24.95 10.5 50.8 43 -1.5 29.4
14:40 1016 30 845 24.95 10.5 51 42 -1.9 28.6
14:45 1016 30 845 24.95 10.8 51.4 41 -1.9 28.5
14:50 1016 30 845 24.95 11.1 51.9 38 -2.5 27.5
14:55 1016 30 845 24.95 11.2 52.2 37 -2.7 27.1
15:00 1016 30 845 24.95 11.1 52 38 -2.5 27.5
15:05 1016 30 845 24.95 10.7 51.3 37 -3.5 25.7
15:10 1016 30 845 24.95 11.1 52.1 36 -3.2 26.2
15:15 1016 30 845 24.95 11.4 52.5 37 -2.9 26.8
15:20 1016 30 845 24.95 11.4 52.4 35 -3.3 26
15:25 1016 30 845 24.95 11.2 52.1 36 -3.1 26.4
15:30 1016 30 845 24.95 11 51.8 36 -3.3 26
15:35 1016 30 845 24.95 11 51.7 35 -3.7 25.3
15:40 1016 30 845 24.95 10.9 51.6 36 -3.7 25.3
15:45 1015 29.97 845 24.95 10.8 51.5 36 -3.5 25.7
15:50 1015 29.97 845 24.95 10.8 51.5 36 -3.7 25.3
15:55 1015 29.97 845 24.95 10.8 51.5 35 -3.9 25
16:00 1015 29.97 845 24.95 10.7 51.3 37 -3.4 25.8
16:05 1015 29.97 845 24.95 10.3 50.6 40 -2.8 27
16:10 1015 29.97 844 24.92 9.8 49.7 40 -3.2 26.3
16:15 1015 29.97 844 24.92 9.7 49.5 40 -3.3 26
16:20 1015 29.97 844 24.92 9.6 49.3 41 -2.9 26.8
16:25 1015 29.97 844 24.92 9.5 49 42 -2.8 27
16:30 1015 29.97 844 24.92 9.3 48.8 43 -2.5 27.5
16:35 1015 29.97 844 24.92 9.2 48.6 44 -2.5 27.5
16:40 1015 29.97 844 24.92 9.2 48.5 45 -2.3 27.9
16:45 1015 29.97 844 24.92 9.2 48.6 44 -2.3 27.8
16:50 1015 29.97 844 24.92 9.2 48.6 44 -2.4 27.6
16:55 1015 29.97 844 24.92 9.1 48.4 46 -1.9 28.6
17:00 1015 29.97 844 24.92 8.9 48.1 47 -1.8 28.8
17:05 1015 29.97 844 24.92 8.7 47.7 49 -1.3 29.6
17:10 1015 29.97 844 24.92 8.2 46.8 51 -1.2 29.9
17:15 1015 29.97 844 24.92 8 46.5 53 -1 30.2
17:20 1015 29.97 844 24.92 7.9 46.1 54 -0.9 30.4
17:25 1015 29.97 844 24.92 7.6 45.7 56 -0.6 30.8
17:30 1015 29.97 844 24.92 7.3 45.2 57 -0.5 31
17:35 1015 29.97 844 24.92 7.1 44.8 59 -0.3 31.4
17:40 1015 29.97 844 24.92 6.9 44.5 61 -0.1 31.7
17:45 1015 29.97 844 24.92 6.6 44 63 0 32
17:50 1015 29.97 844 24.92 6.3 43.4 65 0.2 32.3
17:55 1015 29.97 844 24.92 6.3 43.3 63 -0.1 31.7
18:00 1015 29.97 844 24.92 6.2 43.1 64 -0.1 31.8
18:05 1015 29.97 844 24.92 6 42.8 65 -0 32
18:10 1015 29.97 844 24.92 5.6 42.1 65 -0.4 31.4
18:15 1015 29.97 844 24.92 5.4 41.8 66 -0.4 31.2
18:20 1015 29.97 844 24.92 5.2 41.3 66 -0.6 30.9
18:25 1015 29.97 844 24.92 5.1 41.1 66 -0.7 30.8
18:30 1015 29.97 844 24.92 5.1 41.2 66 -0.6 30.9
18:35 1015 29.97 844 24.92 5 41.1 65 -1 30.2
18:40 1015 29.97 844 24.92 4.9 40.8 64 -1.5 29.4
18:45 1015 29.97 844 24.92 4.8 40.7 63 -1.7 28.9
18:50 1015 29.97 844 24.92 4.8 40.7 63 -1.7 29
18:55 1015 29.97 844 24.92 4.8 40.7 61 -2.1 28.3
19:00 1015 29.97 844 24.92 4.8 40.6 61 -2.1 28.2
19:05 1015 29.97 844 24.92 4.6 40.3 62 -2 28.4
19:10 1015 29.97 844 24.92 4.5 40 63 -1.9 28.6
19:15 1015 29.97 844 24.92 4.5 40.1 62 -2.2 28
19:20 1015 29.97 844 24.92 4.5 40.1 60 -2.5 27.6
19:25 1015 29.97 844 24.92 4.5 40.1 61 -2.4 27.8
19:30 1015 29.97 844 24.92 4.4 39.8 61 -2.6 27.3
19:35 1014 29.94 844 24.92 4.4 40 61 -2.4 27.6
19:40 1014 29.94 844 24.92 4.3 39.8 62 -2.2 28
19:45 1014 29.94 844 24.92 4.3 39.8 62 -2.3 27.9
19:50 1014 29.94 844 24.92 4.4 39.9 62 -2.3 27.8
19:55 1014 29.94 844 24.92 4.5 40.1 62 -2.1 28.1
20:00 1014 29.94 844 24.92 4.4 39.8 63 -2.1 28.2
20:05 1014 29.94 844 24.92 4.2 39.6 63 -2.2 28.1
20:10 1014 29.94 844 24.92 4.2 39.5 64 -2.1 28.3
20:15 1014 29.94 844 24.92 4.1 39.4 64 -2 28.4
20:20 1014 29.94 844 24.92 4 39.2 64 -2.2 28.1
20:25 1014 29.94 844 24.92 4 39.2 64 -2.2 28.1
20:30 1014 29.94 844 24.92 4.1 39.3 64 -2.2 28.1
20:35 1014 29.94 844 24.92 4 39.3 62 -2.5 27.5
20:40 1014 29.94 844 24.92 4.3 39.7 62 -2.3 27.9
20:45 1014 29.94 844 24.92 4.2 39.6 62 -2.3 27.8
20:50 1014 29.94 844 24.92 4 39.3 65 -2 28.4
20:55 1014 29.94 844 24.92 4 39.1 64 -2.2 28
21:00 1014 29.94 844 24.92 3.7 38.6 66 -2.1 28.2
21:05 1014 29.94 844 24.92 3.4 38.1 66 -2.4 27.6
21:10 1014 29.94 844 24.92 3.6 38.5 64 -2.5 27.5
21:15 1014 29.94 844 24.92 3.8 38.9 65 -2.2 28
21:20 1014 29.94 844 24.92 3.4 38.1 66 -2.5 27.6
21:25 1014 29.94 844 24.92 3.2 37.8 67 -2.4 27.7
21:30 1014 29.94 844 24.92 3.2 37.7 65 -2.8 27
21:35 1014 29.94 844 24.92 3.7 38.7 64 -2.5 27.5
21:40 1014 29.94 844 24.92 3.6 38.5 65 -2.5 27.6
21:45 1014 29.94 844 24.92 3.4 38.1 66 -2.4 27.6
21:50 1014 29.94 844 24.92 3.6 38.5 63 -2.7 27.1
21:55 1014 29.94 844 24.92 3.8 38.8 64 -2.5 27.5
22:00 1014 29.94 844 24.92 3.6 38.4 65 -2.4 27.6
22:05 1014 29.94 844 24.92 3.3 38 65 -2.7 27.2
22:10 1014 29.94 844 24.92 3.5 38.2 65 -2.5 27.6
22:15 1014 29.94 844 24.92 3.3 37.9 65 -2.6 27.3
22:20 1014 29.94 844 24.92 3.1 37.5 67 -2.4 27.7
22:25 1014 29.94 844 24.92 2.7 36.9 69 -2.4 27.7
22:30 1014 29.94 844 24.92 2.5 36.4 69 -2.6 27.2
22:35 1014 29.94 844 24.92 2.5 36.5 68 -2.8 27
22:40 1014 29.94 844 24.92 2.7 36.9 67 -2.8 26.9
22:45 1014 29.94 844 24.92 2.8 37 66 -2.9 26.8
22:50 1014 29.94 844 24.92 2.8 37 66 -2.9 26.8
22:55 1014 29.94 844 24.92 2.5 36.6 68 -2.8 27
23:00 1014 29.94 844 24.92 2.3 36.2 69 -2.9 26.9
23:05 1014 29.94 844 24.92 2.2 36 69 -2.9 26.8
23:10 1014 29.94 844 24.92 2.3 36.1 68 -3.1 26.5
23:15 1014 29.94 844 24.92 2.3 36.2 68 -3 26.5
23:20 1014 29.94 844 24.92 2.1 35.8 69 -3 26.6
23:25 1014 29.94 844 24.92 2 35.5 69 -3 26.5
23:30 1014 29.94 844 24.92 1.9 35.5 69 -3.2 26.3
23:35 1014 29.94 844 24.92 2.1 35.8 68 -3.3 26.1
23:40 1014 29.94 844 24.92 2.4 36.3 67 -3.2 26.3
23:45 1014 29.94 844 24.92 2.3 36.1 67 -3.3 26.1
23:50 1014 29.94 844 24.92 2.4 36.3 66 -3.4 25.9
23:55 1014 29.94 844 24.92 2.5 36.5 64 -3.6 25.6
24:00 1014 29.94 843 24.89 2.7 36.9 63 -3.6 25.5